Time;durP1;ratioP1;P1;durP2;ratioP2;P2;SDS_P1;SDS_P2;PMS_P1;PMS_P2;Temp;Humidity;BMP_temperature;BMP_pressure;BME280_temperature;BME280_humidity;BME280_pressure;Samples;Min_cycle;Max_cycle;Signal;HPM_P1;HPM_P2
2023/11/27 00:00:00;;;;;;;7.20;4.80;;;;;;;-0.28;82.20;99620.52;107454;278;104991;-58
2023/11/27 00:02:42;;;;;;;7.20;5.00;;;;;;;-0.29;82.20;99619.67;107302;278;154639;-58
2023/11/27 00:05:23;;;;;;;6.40;4.80;;;;;;;-0.30;82.13;99617.83;107401;278;93871;-55
2023/11/27 00:08:00;;;;;;;6.80;5.40;;;;;;;-0.32;82.17;99623.33;107517;278;96622;-55
2023/11/27 00:10:39;;;;;;;8.80;5.60;;;;;;;-0.33;82.11;99623.21;107342;278;153074;-53
2023/11/27 00:13:16;;;;;;;6.30;4.70;;;;;;;-0.34;82.03;99622.45;107394;278;104178;-56
2023/11/27 00:15:53;;;;;;;9.20;5.70;;;;;;;-0.40;82.03;99623.81;107275;278;154995;-53
2023/11/27 00:18:38;;;;;;;7.40;5.00;;;;;;;-0.36;82.12;99624.42;107474;278;95493;-54
2023/11/27 00:21:19;;;;;;;7.90;5.30;;;;;;;-0.33;82.15;99621.64;107280;278;153620;-55
2023/11/27 00:24:04;;;;;;;8.70;5.60;;;;;;;-0.32;82.14;99627.41;107396;278;117914;-55
2023/11/27 00:26:43;;;;;;;6.80;5.20;;;;;;;-0.29;82.11;99625.65;107296;278;155213;-55
2023/11/27 00:29:21;;;;;;;9.30;5.90;;;;;;;-0.28;82.00;99628.98;107449;278;114240;-53
2023/11/27 00:32:06;;;;;;;8.30;5.50;;;;;;;-0.29;81.95;99632.57;107424;278;92738;-52
2023/11/27 00:34:44;;;;;;;7.70;5.70;;;;;;;-0.31;81.86;99630.50;107338;278;153889;-54
2023/11/27 00:37:26;;;;;;;9.50;6.10;;;;;;;-0.33;81.92;99629.02;107374;278;118869;-55
2023/11/27 00:40:07;;;;;;;9.20;5.40;;;;;;;-0.34;81.90;99625.98;107298;278;154932;-58
2023/11/27 00:42:49;;;;;;;9.40;6.80;;;;;;;-0.35;81.90;99622.20;107356;278;113580;-58
2023/11/27 00:45:28;;;;;;;8.30;5.80;;;;;;;-0.34;82.05;99618.21;107242;278;154845;-53
2023/11/27 00:48:04;;;;;;;10.00;6.20;;;;;;;-0.32;82.01;99616.90;107443;278;98087;-53
2023/11/27 00:50:44;;;;;;;9.10;6.40;;;;;;;-0.29;82.05;99619.16;107276;278;155094;-58
2023/11/27 00:53:22;;;;;;;8.90;5.60;;;;;;;-0.29;82.10;99619.27;107432;278;105133;-58
2023/11/27 00:55:57;;;;;;;9.70;6.40;;;;;;;-0.25;82.09;99617.67;107392;278;114249;-57
2023/11/27 00:58:37;;;;;;;10.30;5.60;;;;;;;-0.21;82.05;99616.06;107321;279;154377;-53
2023/11/27 01:01:13;;;;;;;9.20;5.90;;;;;;;-0.26;82.03;99611.96;107409;278;97921;-54
2023/11/27 01:03:50;;;;;;;9.10;6.30;;;;;;;-0.32;82.13;99609.90;107298;278;153700;-53
2023/11/27 01:06:26;;;;;;;11.00;6.50;;;;;;;-0.37;82.11;99610.30;107417;278;105707;-54
2023/11/27 01:09:02;;;;;;;9.20;6.20;;;;;;;-0.37;82.15;99611.38;107274;278;155272;-58
2023/11/27 01:11:44;;;;;;;9.90;6.80;;;;;;;-0.35;82.18;99611.58;107423;278;94962;-58
2023/11/27 01:14:24;;;;;;;10.20;6.70;;;;;;;-0.37;82.20;99613.17;107444;278;98629;-57
2023/11/27 01:17:03;;;;;;;9.10;6.30;;;;;;;-0.35;82.27;99615.11;107386;279;118766;-58
2023/11/27 01:19:43;;;;;;;7.70;5.80;;;;;;;-0.31;82.17;99613.00;107438;279;105531;-58
2023/11/27 01:22:25;;;;;;;9.10;6.20;;;;;;;-0.28;82.27;99609.89;107286;279;155574;-58
2023/11/27 01:25:05;;;;;;;8.20;6.00;;;;;;;-0.28;82.35;99612.14;107410;278;92791;-58
2023/11/27 01:27:45;;;;;;;8.20;6.10;;;;;;;-0.27;82.27;99611.20;107300;278;153762;-58
2023/11/27 01:30:32;;;;;;;8.70;6.00;;;;;;;-0.30;82.31;99611.81;107452;278;120144;-53
2023/11/27 01:33:12;;;;;;;8.70;6.20;;;;;;;-0.32;82.35;99610.59;107283;278;153784;-52
2023/11/27 01:35:48;;;;;;;8.80;6.00;;;;;;;-0.32;82.23;99610.71;107425;278;113069;-55
2023/11/27 01:38:32;;;;;;;9.20;6.60;;;;;;;-0.33;82.16;99606.10;107449;278;94786;-55
2023/11/27 01:41:10;;;;;;;10.10;6.30;;;;;;;-0.30;82.28;99604.23;107422;279;99509;-54
2023/11/27 01:43:49;;;;;;;8.10;6.00;;;;;;;-0.32;82.30;99597.09;107419;279;120015;-54
2023/11/27 01:46:32;;;;;;;9.30;6.20;;;;;;;-0.34;82.36;99595.73;107330;279;155514;-54
2023/11/27 01:49:10;;;;;;;10.50;6.10;;;;;;;-0.28;82.37;99596.56;107480;278;114877;-53
2023/11/27 01:51:46;;;;;;;9.00;6.40;;;;;;;-0.28;82.26;99595.31;107346;278;154570;-52
2023/11/27 01:54:24;;;;;;;9.70;7.40;;;;;;;-0.32;82.44;99594.44;107431;278;97457;-56
2023/11/27 01:57:04;;;;;;;9.20;6.50;;;;;;;-0.33;82.34;99593.30;107289;278;153574;-55
2023/11/27 01:59:43;;;;;;;11.10;7.00;;;;;;;-0.35;82.44;99592.96;107409;274;106418;-58
2023/11/27 02:02:21;;;;;;;9.50;6.70;;;;;;;-0.41;82.48;99591.73;107386;271;113194;-58
2023/11/27 02:05:04;;;;;;;10.00;7.20;;;;;;;-0.45;82.46;99588.30;107248;280;94946;-55
2023/11/27 02:07:44;;;;;;;11.30;7.30;;;;;;;-0.48;82.54;99583.94;107490;280;97600;-56
2023/11/27 02:10:18;;;;;;;9.00;6.60;;;;;;;-0.51;82.55;99581.38;107296;280;154287;-54
2023/11/27 02:12:53;;;;;;;11.30;6.70;;;;;;;-0.53;82.52;99576.41;107438;279;103474;-55
2023/11/27 02:15:37;;;;;;;9.30;7.10;;;;;;;-0.49;82.60;99575.35;107276;279;153871;-55
2023/11/27 02:18:23;;;;;;;7.50;6.50;;;;;;;-0.44;82.47;99571.73;107394;279;93284;-55
2023/11/27 02:21:11;;;;;;;8.50;6.60;;;;;;;-0.44;82.49;99573.14;107289;279;153680;-53
2023/11/27 02:23:49;;;;;;;9.60;6.30;;;;;;;-0.48;82.55;99571.23;107419;279;118483;-53
2023/11/27 02:26:26;;;;;;;10.30;6.90;;;;;;;-0.48;82.67;99566.83;107455;279;104799;-53
2023/11/27 02:29:08;;;;;;;10.90;7.10;;;;;;;-0.47;82.64;99562.40;107347;279;115620;-57
2023/11/27 02:31:46;;;;;;;9.70;7.10;;;;;;;-0.49;82.62;99553.40;107329;279;95379;-59
2023/11/27 02:34:26;;;;;;;10.90;7.90;;;;;;;-0.48;82.61;99550.18;107321;279;154184;-54
2023/11/27 02:37:06;;;;;;;12.00;8.40;;;;;;;-0.48;82.57;99555.48;107415;279;119193;-54
2023/11/27 02:39:49;;;;;;;8.70;7.50;;;;;;;-0.48;82.61;99554.02;107322;279;155950;-52
2023/11/27 02:42:30;;;;;;;9.80;7.40;;;;;;;-0.51;82.71;99556.64;107408;279;113787;-52
2023/11/27 02:45:11;;;;;;;11.20;7.70;;;;;;;-0.52;82.78;99550.73;107272;279;154804;-58
2023/11/27 02:47:52;;;;;;;12.40;8.10;;;;;;;-0.54;82.80;99556.04;107413;279;98390;-58
2023/11/27 02:50:36;;;;;;;13.00;8.10;;;;;;;-0.57;82.85;99554.15;107450;279;119370;-52
2023/11/27 02:53:13;;;;;;;10.70;7.70;;;;;;;-0.56;82.79;99556.89;107388;279;104821;-52
2023/11/27 02:55:50;;;;;;;11.60;8.00;;;;;;;-0.57;82.83;99556.44;107392;279;111997;-53
2023/11/27 02:58:38;;;;;;;11.70;8.40;;;;;;;-0.58;82.93;99558.34;107305;279;154423;-56
2023/11/27 03:01:22;;;;;;;9.90;7.20;;;;;;;-0.63;82.94;99556.07;107389;279;97756;-55
2023/11/27 03:04:04;;;;;;;11.10;7.50;;;;;;;-0.64;82.94;99562.23;107252;279;154331;-53
2023/11/27 03:06:39;;;;;;;9.80;7.60;;;;;;;-0.64;83.06;99560.43;107420;278;105854;-53
2023/11/27 03:09:24;;;;;;;12.30;8.10;;;;;;;-0.63;83.17;99556.95;107318;278;154386;-54
2023/11/27 03:12:05;;;;;;;10.10;7.90;;;;;;;-0.56;83.15;99557.98;107428;278;93073;-54
2023/11/27 03:14:44;;;;;;;10.50;7.60;;;;;;;-0.55;83.22;99560.38;107305;278;153827;-55
2023/11/27 03:17:22;;;;;;;12.70;8.50;;;;;;;-0.54;83.30;99561.66;107417;278;120080;-55
2023/11/27 03:20:04;;;;;;;10.10;8.50;;;;;;;-0.53;83.32;99560.83;107417;278;104713;-57
2023/11/27 03:22:47;;;;;;;12.00;8.60;;;;;;;-0.52;83.37;99557.29;107300;279;153261;-58
2023/11/27 03:25:33;;;;;;;12.00;8.90;;;;;;;-0.50;83.34;99555.27;107375;278;95676;-57
2023/11/27 03:28:08;;;;;;;11.90;8.60;;;;;;;-0.52;83.44;99552.45;107290;278;155328;-58
2023/11/27 03:30:48;;;;;;;11.70;8.80;;;;;;;-0.53;83.48;99548.18;107389;278;117838;-54
2023/11/27 03:33:36;;;;;;;12.50;8.70;;;;;;;-0.52;83.41;99550.50;107266;278;154338;-54
2023/11/27 03:36:14;;;;;;;11.30;9.20;;;;;;;-0.49;83.39;99550.40;107415;278;114209;-54
2023/11/27 03:38:54;;;;;;;15.70;8.30;;;;;;;-0.46;83.41;99549.06;107245;278;154850;-54
2023/11/27 03:41:35;;;;;;;12.80;8.00;;;;;;;-0.44;83.50;99544.63;107431;278;97336;-53
2023/11/27 03:44:15;;;;;;;10.30;7.60;;;;;;;-0.42;83.58;99547.25;107393;278;118428;-53
2023/11/27 03:46:53;;;;;;;10.60;7.60;;;;;;;-0.39;83.46;99546.66;107348;278;153531;-52
2023/11/27 03:49:32;;;;;;;11.60;7.50;;;;;;;-0.39;83.45;99548.40;107376;278;114374;-57
2023/11/27 03:52:16;;;;;;;10.90;8.80;;;;;;;-0.42;83.47;99549.96;107243;278;153666;-57
2023/11/27 03:54:53;;;;;;;11.80;8.30;;;;;;;-0.44;83.46;99548.41;107330;278;97744;-53
2023/11/27 03:57:34;;;;;;;9.80;8.40;;;;;;;-0.46;83.46;99547.33;107301;278;154025;-52
2023/11/27 04:00:12;;;;;;;10.00;8.20;;;;;;;-0.46;83.42;99549.80;107451;278;105332;-57
2023/11/27 04:02:51;;;;;;;10.40;7.80;;;;;;;-0.43;83.48;99544.92;107283;278;155504;-58
2023/11/27 04:05:27;;;;;;;11.60;8.70;;;;;;;-0.41;83.49;99546.30;107473;278;95900;-54
2023/11/27 04:08:08;;;;;;;10.70;8.30;;;;;;;-0.39;83.31;99550.86;107405;278;96493;-54
2023/11/27 04:10:49;;;;;;;13.10;8.80;;;;;;;-0.39;83.39;99550.19;107439;278;153628;-55
2023/11/27 04:13:31;;;;;;;11.20;8.80;;;;;;;-0.41;83.44;99545.46;107404;278;105302;-54
2023/11/27 04:16:10;;;;;;;12.80;9.20;;;;;;;-0.47;83.37;99546.86;107377;278;154901;-53
2023/11/27 04:18:48;;;;;;;12.80;9.20;;;;;;;-0.54;83.46;99552.31;107431;278;95282;-52
2023/11/27 04:21:27;;;;;;;12.30;8.80;;;;;;;-0.55;83.50;99549.21;107281;278;155436;-53
2023/11/27 04:24:04;;;;;;;12.00;9.60;;;;;;;-0.53;83.54;99548.82;107481;278;119711;-53
2023/11/27 04:26:42;;;;;;;12.40;9.50;;;;;;;-0.51;83.51;99542.84;107418;278;105349;-52
2023/11/27 04:29:21;;;;;;;14.30;9.40;;;;;;;-0.47;83.52;99539.85;106768;280;766145;-56
2023/11/27 04:32:05;;;;;;;12.20;8.60;;;;;;;-0.47;83.55;99542.42;107381;280;94786;-57
2023/11/27 04:34:48;;;;;;;11.70;9.00;;;;;;;-0.52;83.62;99535.63;107289;280;155238;-55
2023/11/27 04:37:29;;;;;;;11.00;9.10;;;;;;;-0.47;83.59;99533.61;107422;279;119395;-56
2023/11/27 04:40:14;;;;;;;11.60;9.10;;;;;;;-0.44;83.68;99530.86;107321;279;155111;-54
2023/11/27 04:42:53;;;;;;;10.10;8.90;;;;;;;-0.44;83.69;99531.53;107410;279;114746;-54
2023/11/27 04:45:38;;;;;;;12.90;10.20;;;;;;;-0.50;83.82;99535.34;107260;279;154813;-56
2023/11/27 04:48:21;;;;;;;13.80;9.90;;;;;;;-0.50;83.83;99534.58;107465;279;97919;-55
2023/11/27 04:51:02;;;;;;;12.80;10.00;;;;;;;-0.55;83.79;99531.91;107270;279;155646;-52
2023/11/27 04:53:37;;;;;;;14.00;10.20;;;;;;;-0.60;83.84;99529.84;107399;279;105963;-55
2023/11/27 04:56:15;;;;;;;15.70;10.70;;;;;;;-0.63;83.81;99532.19;107369;279;114201;-55
2023/11/27 04:58:56;;;;;;;17.10;11.40;;;;;;;-0.62;83.86;99536.23;107334;279;154533;-54
2023/11/27 05:01:40;;;;;;;14.10;11.00;;;;;;;-0.64;83.81;99538.02;107391;279;97719;-54
2023/11/27 05:04:28;;;;;;;17.00;11.00;;;;;;;-0.65;83.89;99535.61;107277;279;155406;-54
2023/11/27 05:07:05;;;;;;;15.60;10.40;;;;;;;-0.63;84.10;99532.19;107439;279;107495;-54
2023/11/27 05:09:43;;;;;;;15.90;10.40;;;;;;;-0.56;84.01;99532.91;107339;279;155371;-53
2023/11/27 05:12:23;;;;;;;13.90;11.40;;;;;;;-0.54;84.05;99536.20;107533;279;92082;-53
2023/11/27 05:15:06;;;;;;;14.90;10.80;;;;;;;-0.52;83.97;99534.77;107258;279;154050;-58
2023/11/27 05:17:42;;;;;;;16.20;12.00;;;;;;;-0.54;83.97;99537.08;107434;279;120176;-58
2023/11/27 05:20:16;;;;;;;15.40;11.40;;;;;;;-0.58;84.02;99538.73;107450;279;105596;-53
2023/11/27 05:23:01;;;;;;;17.70;11.80;;;;;;;-0.63;84.07;99537.32;107343;279;154918;-53
2023/11/27 05:25:36;;;;;;;;;;;;;;;-0.64;84.15;99543.13;107411;279;95436;-58
2023/11/27 05:28:19;;;;;;;14.50;11.00;;;;;;;-0.63;84.31;99541.23;107275;279;140321;-58
2023/11/27 05:30:54;;;;;;;13.10;11.00;;;;;;;-0.63;84.36;99542.51;107422;279;119186;-55
2023/11/27 05:33:33;;;;;;;14.10;10.50;;;;;;;-0.62;84.41;99546.25;107258;279;156882;-53
2023/11/27 05:36:12;;;;;;;17.80;11.30;;;;;;;-0.59;84.41;99547.29;107443;279;114386;-53
2023/11/27 05:38:54;;;;;;;13.40;10.80;;;;;;;-0.58;84.36;99547.88;107298;279;155569;-59
2023/11/27 05:41:43;;;;;;;15.90;12.00;;;;;;;-0.57;84.52;99546.09;107393;280;95485;-57
2023/11/27 05:44:21;;;;;;;14.40;11.20;;;;;;;-0.55;84.51;99550.79;107376;280;119997;-57
2023/11/27 05:46:58;;;;;;;15.00;11.40;;;;;;;-0.57;84.58;99549.41;107252;280;153871;-57
2023/11/27 05:49:39;;;;;;;16.60;11.60;;;;;;;-0.63;84.70;99547.84;107409;280;112870;-53
2023/11/27 05:52:15;;;;;;;13.90;11.10;;;;;;;-0.65;84.68;99550.41;107250;280;154719;-54
2023/11/27 05:54:53;;;;;;;14.70;10.90;;;;;;;-0.68;84.79;99549.35;107383;280;96819;-57
2023/11/27 05:57:35;;;;;;;16.00;10.80;;;;;;;-0.65;84.72;99551.17;107261;280;155844;-56
2023/11/27 06:00:18;;;;;;;14.00;11.40;;;;;;;-0.62;84.75;99546.05;107388;280;105130;-56
2023/11/27 06:03:01;;;;;;;13.90;11.30;;;;;;;-0.60;84.82;99553.39;107246;280;154518;-56
2023/11/27 06:05:39;;;;;;;14.80;11.70;;;;;;;-0.60;84.83;99555.10;107399;280;93640;-55
2023/11/27 06:08:24;;;;;;;15.10;11.60;;;;;;;-0.59;84.82;99552.27;107396;280;95445;-56
2023/11/27 06:11:04;;;;;;;16.70;12.20;;;;;;;-0.61;84.86;99553.45;107267;280;153259;-54
2023/11/27 06:13:44;;;;;;;16.50;12.70;;;;;;;-0.65;84.89;99550.05;107425;280;105974;-56
2023/11/27 06:16:33;;;;;;;17.20;12.50;;;;;;;-0.68;84.84;99553.53;107204;280;156016;-56
2023/11/27 06:19:20;;;;;;;19.10;13.30;;;;;;;-0.66;84.86;99560.93;107361;280;96356;-55
2023/11/27 06:21:58;;;;;;;18.40;13.30;;;;;;;-0.65;84.90;99562.64;107270;280;154423;-54
2023/11/27 06:24:34;;;;;;;16.80;13.00;;;;;;;-0.63;84.95;99569.73;107426;280;119811;-57
2023/11/27 06:27:14;;;;;;;15.70;13.20;;;;;;;-0.61;84.97;99573.09;107275;280;155066;-56
2023/11/27 06:29:53;;;;;;;16.40;12.30;;;;;;;-0.58;85.00;99569.42;107400;280;113593;-59
2023/11/27 06:32:33;;;;;;;16.20;12.70;;;;;;;-0.54;84.94;99567.87;107378;280;93177;-58
2023/11/27 06:35:11;;;;;;;15.60;12.70;;;;;;;-0.54;84.88;99563.95;107501;278;97795;-53
2023/11/27 06:37:52;;;;;;;16.90;12.20;;;;;;;-0.53;84.92;99561.98;107404;278;120762;-54
2023/11/27 06:40:33;;;;;;;15.10;12.20;;;;;;;-0.52;84.86;99563.48;107340;278;155356;-54
2023/11/27 06:43:11;;;;;;;17.80;11.80;;;;;;;-0.53;84.80;99564.60;107363;278;114709;-55
2023/11/27 06:45:52;;;;;;;17.40;12.20;;;;;;;-0.53;84.85;99564.82;107337;278;154361;-57
2023/11/27 06:48:37;;;;;;;16.80;11.80;;;;;;;-0.51;84.87;99561.71;107445;278;96774;-54
2023/11/27 06:51:18;;;;;;;18.20;12.10;;;;;;;-0.47;84.74;99560.86;107277;278;154594;-53
2023/11/27 06:53:57;;;;;;;16.40;12.30;;;;;;;-0.46;84.86;99562.22;107446;278;104916;-53
2023/11/27 06:56:35;;;;;;;14.50;11.10;;;;;;;-0.44;84.80;99563.25;107390;278;114468;-52
2023/11/27 06:59:12;;;;;;;16.00;11.40;;;;;;;-0.42;84.74;99561.97;107390;279;93648;-54
2023/11/27 07:01:50;;;;;;;15.40;11.80;;;;;;;-0.42;84.79;99561.74;107472;279;97862;-53
2023/11/27 07:04:26;;;;;;;15.50;12.20;;;;;;;-0.43;84.73;99559.73;107268;279;153681;-57
2023/11/27 07:07:06;;;;;;;16.30;12.30;;;;;;;-0.43;84.72;99562.41;107367;279;106487;-55
2023/11/27 07:09:49;;;;;;;15.70;12.40;;;;;;;-0.43;84.81;99564.34;107273;279;154770;-53
2023/11/27 07:12:29;;;;;;;14.00;11.00;;;;;;;-0.41;84.75;99567.75;107389;279;96130;-54
2023/11/27 07:15:11;;;;;;;14.90;10.90;;;;;;;-0.42;84.77;99568.20;107263;279;155063;-56
2023/11/27 07:17:59;;;;;;;15.80;11.60;;;;;;;-0.40;84.73;99570.98;107431;279;120453;-56
2023/11/27 07:20:45;;;;;;;16.90;12.70;;;;;;;-0.40;84.69;99576.48;107416;279;104457;-52
2023/11/27 07:23:23;;;;;;;14.40;11.50;;;;;;;-0.39;84.78;99576.23;107380;280;115761;-52
2023/11/27 07:26:04;;;;;;;16.40;12.20;;;;;;;-0.35;84.77;99576.71;107390;280;93148;-52
2023/11/27 07:28:41;;;;;;;15.40;11.80;;;;;;;-0.37;84.65;99578.30;107314;280;153615;-54
2023/11/27 07:31:27;;;;;;;15.90;11.50;;;;;;;-0.40;84.75;99577.85;107433;279;119515;-52
2023/11/27 07:34:14;;;;;;;15.20;11.80;;;;;;;-0.39;84.64;99574.75;107270;279;154423;-52
2023/11/27 07:36:50;;;;;;;11.10;8.50;;;;;;;-0.42;84.78;99574.02;107435;279;114136;-52
2023/11/27 07:39:29;;;;;;;16.70;12.00;;;;;;;-0.40;84.81;99579.70;107280;279;155368;-54
2023/11/27 07:42:09;;;;;;;15.10;11.90;;;;;;;-0.35;84.84;99579.02;107478;279;97928;-55
2023/11/27 07:44:53;;;;;;;14.20;11.60;;;;;;;-0.29;84.77;99578.86;107439;279;117849;-57
2023/11/27 07:47:38;;;;;;;20.80;12.30;;;;;;;-0.27;84.88;99577.05;107399;279;103618;-57
2023/11/27 07:50:14;;;;;;;16.40;12.90;;;;;;;-0.23;84.83;99574.48;107435;279;114589;-57
2023/11/27 07:52:52;;;;;;;17.10;12.40;;;;;;;-0.15;84.80;99578.17;107324;279;154006;-57
2023/11/27 07:55:29;;;;;;;16.50;12.10;;;;;;;-0.13;84.66;99580.83;107459;279;97636;-55
2023/11/27 07:58:07;;;;;;;17.60;13.40;;;;;;;-0.14;84.77;99578.58;107327;279;153771;-53
2023/11/27 08:00:46;;;;;;;20.00;13.20;;;;;;;-0.16;84.69;99578.98;107409;279;105595;-57
2023/11/27 08:03:27;;;;;;;18.60;13.00;;;;;;;-0.09;84.73;99575.73;107292;279;154095;-54
2023/11/27 08:06:06;;;;;;;16.40;12.10;;;;;;;-0.06;84.61;99576.83;107393;279;94322;-55
2023/11/27 08:08:43;;;;;;;14.50;10.90;;;;;;;-0.09;84.67;99573.89;107438;279;98405;-52
2023/11/27 08:11:29;;;;;;;15.80;12.10;;;;;;;-0.02;84.67;99575.19;107399;280;119612;-52
2023/11/27 08:14:05;;;;;;;14.80;10.50;;;;;;;-0.02;84.59;99569.91;107371;280;104846;-53
2023/11/27 08:16:43;;;;;;;14.90;11.20;;;;;;;-0.02;84.54;99566.30;107268;280;154591;-52
2023/11/27 08:19:28;;;;;;;16.50;11.90;;;;;;;0.06;84.51;99565.59;107459;279;92293;-54
2023/11/27 08:22:12;;;;;;;14.40;11.90;;;;;;;0.15;84.62;99568.62;107276;279;154635;-59
2023/11/27 08:24:54;;;;;;;17.40;12.70;;;;;;;0.20;84.52;99571.61;107401;279;120012;-52
2023/11/27 08:27:36;;;;;;;16.20;11.50;;;;;;;0.28;84.47;99565.41;107258;279;153960;-52
2023/11/27 08:30:18;;;;;;;16.80;12.80;;;;;;;0.35;84.27;99564.55;107439;279;116510;-52
2023/11/27 08:32:58;;;;;;;15.70;11.20;;;;;;;0.35;84.00;99568.30;107249;277;155763;-55
2023/11/27 08:35:42;;;;;;;13.70;10.90;;;;;;;0.35;83.91;99569.06;107452;279;97383;-54
2023/11/27 08:38:26;;;;;;;15.50;10.70;;;;;;;0.37;83.77;99567.04;107396;279;119840;-54
2023/11/27 08:41:05;;;;;;;15.60;11.50;;;;;;;0.44;83.64;99568.39;107315;279;155312;-53
2023/11/27 08:43:47;;;;;;;14.90;10.60;;;;;;;0.47;83.79;99570.23;107425;279;112190;-55
2023/11/27 08:46:31;;;;;;;15.70;11.50;;;;;;;0.49;83.87;99571.23;107301;279;154867;-53
2023/11/27 08:49:12;;;;;;;16.50;11.00;;;;;;;0.59;83.70;99571.00;107403;279;96643;-54
2023/11/27 08:51:57;;;;;;;15.60;12.50;;;;;;;0.66;83.58;99569.74;107299;279;154362;-53
2023/11/27 08:54:42;;;;;;;16.30;11.60;;;;;;;0.69;83.37;99569.52;107397;279;105316;-53
2023/11/27 08:57:23;;;;;;;16.30;12.10;;;;;;;0.65;83.36;99564.89;107281;279;156655;-55
2023/11/27 09:00:05;;;;;;;19.20;12.50;;;;;;;0.76;83.33;99563.15;107419;279;95367;-53
2023/11/27 09:02:46;;;;;;;17.60;12.50;;;;;;;0.79;83.13;99566.18;107407;279;96652;-52
2023/11/27 09:05:34;;;;;;;17.00;12.60;;;;;;;0.82;83.01;99563.10;107391;279;119237;-52
2023/11/27 09:08:13;;;;;;;17.20;12.90;;;;;;;0.85;82.98;99561.68;107407;279;105467;-53
2023/11/27 09:10:57;;;;;;;17.10;12.20;;;;;;;0.98;82.66;99557.98;107317;279;153547;-55
2023/11/27 09:13:33;;;;;;;17.60;12.60;;;;;;;1.02;82.72;99554.86;107455;279;93327;-52
2023/11/27 09:16:11;;;;;;;17.50;13.20;;;;;;;1.13;82.66;99548.27;107289;279;154031;-53
2023/11/27 09:18:51;;;;;;;16.80;12.90;;;;;;;1.26;82.43;99544.23;107424;279;118024;-52
2023/11/27 09:21:33;;;;;;;18.20;13.30;;;;;;;1.32;82.36;99541.48;107272;279;155319;-52
2023/11/27 09:24:10;;;;;;;16.90;12.20;;;;;;;1.36;82.10;99543.88;107377;279;115163;-53
2023/11/27 09:26:46;;;;;;;15.40;11.80;;;;;;;1.36;82.16;99537.00;107429;279;95486;-52
2023/11/27 09:29:31;;;;;;;17.70;11.10;;;;;;;1.34;81.96;99535.58;107302;279;154224;-53
2023/11/27 09:32:15;;;;;;;19.90;13.30;;;;;;;1.35;81.76;99531.25;107389;279;119649;-53
2023/11/27 09:35:00;;;;;;;16.50;11.90;;;;;;;1.30;81.52;99525.56;107273;279;153879;-54
2023/11/27 09:37:38;;;;;;;16.70;11.60;;;;;;;1.27;81.56;99529.38;107406;279;115070;-52
2023/11/27 09:40:15;;;;;;;16.60;11.60;;;;;;;1.35;81.38;99526.30;107276;279;154964;-54
2023/11/27 09:42:51;;;;;;;14.20;10.70;;;;;;;1.35;81.07;99520.92;107473;279;97751;-54
2023/11/27 09:45:29;;;;;;;13.90;10.70;;;;;;;1.31;80.91;99525.83;107269;279;154360;-53
2023/11/27 09:48:15;;;;;;;15.20;11.00;;;;;;;1.19;80.83;99521.44;107426;279;104601;-51
2023/11/27 09:51:06;;;;;;;15.90;10.90;;;;;;;1.25;80.81;99523.58;107471;279;115226;-52
2023/11/27 09:53:51;;;;;;;16.40;11.00;;;;;;;1.21;80.68;99518.43;107411;279;95310;-53
2023/11/27 09:56:27;;;;;;;;;;;;;;;1.11;80.91;99514.41;107468;279;96768;-54
2023/11/27 09:59:04;;;;;;;13.30;10.20;;;;;;;1.14;80.90;99511.83;106620;279;575575;-57
2023/11/27 10:01:47;;;;;;;14.50;10.30;;;;;;;1.15;80.83;99514.38;106815;280;663140;-57
2023/11/27 10:04:27;;;;;;;13.30;10.60;;;;;;;1.18;80.86;99515.30;107270;280;154601;-53
2023/11/27 10:07:07;;;;;;;13.40;10.50;;;;;;;1.15;80.73;99510.23;107442;279;92770;-53
2023/11/27 10:09:44;;;;;;;16.00;11.60;;;;;;;1.08;80.64;99511.35;107338;279;153930;-53
2023/11/27 10:12:28;;;;;;;14.80;10.90;;;;;;;1.07;80.73;99511.48;107451;279;118520;-52
2023/11/27 10:15:11;;;;;;;15.00;10.40;;;;;;;1.14;80.86;99514.36;107461;280;105773;-54
2023/11/27 10:17:52;;;;;;;14.60;10.60;;;;;;;1.04;80.64;99511.05;107284;281;114642;-54
2023/11/27 10:20:35;;;;;;;13.90;11.10;;;;;;;1.02;80.90;99513.78;107327;281;95297;-52
2023/11/27 10:23:24;;;;;;;14.40;10.80;;;;;;;1.05;80.90;99513.14;107315;280;154986;-53
2023/11/27 10:26:05;;;;;;;15.10;11.20;;;;;;;1.02;80.91;99512.86;107459;280;118250;-52
2023/11/27 10:28:52;;;;;;;15.20;11.10;;;;;;;1.00;80.98;99517.64;107190;280;155754;-53
2023/11/27 10:31:43;;;;;;;16.30;11.80;;;;;;;0.93;80.96;99519.64;107372;281;113219;-54
2023/11/27 10:34:27;;;;;;;15.70;11.60;;;;;;;0.88;81.01;99520.66;107231;281;154242;-57
2023/11/27 10:37:07;;;;;;;15.80;10.90;;;;;;;0.87;81.14;99516.70;107473;280;97850;-58
2023/11/27 10:39:53;;;;;;;14.30;10.50;;;;;;;0.85;81.36;99512.48;107312;280;153760;-54
2023/11/27 10:42:37;;;;;;;16.00;10.90;;;;;;;0.80;81.49;99514.02;107368;281;103187;-53
2023/11/27 10:45:20;;;;;;;15.60;11.30;;;;;;;0.74;81.71;99506.89;107250;281;155280;-53
2023/11/27 10:47:56;;;;;;;17.60;11.40;;;;;;;0.75;81.65;99503.48;107413;280;95701;-52
2023/11/27 10:50:39;;;;;;;15.30;11.20;;;;;;;0.75;81.96;99502.09;107499;279;96326;-57
2023/11/27 10:53:24;;;;;;;15.90;12.20;;;;;;;0.80;81.89;99500.51;107241;280;154125;-57
2023/11/27 10:55:59;;;;;;;;;;;;;;;0.77;82.04;99499.27;107394;281;104374;-54
2023/11/27 10:58:38;;;;;;;14.10;11.20;;;;;;;0.74;82.20;99495.10;107254;280;140487;-56
2023/11/27 11:01:19;;;;;;;14.10;10.70;;;;;;;0.82;82.08;99498.05;107376;280;92680;-53
2023/11/27 11:04:09;;;;;;;14.40;11.80;;;;;;;0.80;82.11;99496.65;107305;280;154167;-58
2023/11/27 11:06:54;;;;;;;15.80;12.10;;;;;;;0.84;82.25;99494.48;107382;280;118850;-57
2023/11/27 11:09:35;;;;;;;20.50;14.70;;;;;;;0.85;82.09;99493.13;107241;280;155139;-54
2023/11/27 11:12:12;;;;;;;17.40;13.60;;;;;;;0.79;82.20;99492.73;107392;280;114918;-54
2023/11/27 11:14:58;;;;;;;17.90;12.70;;;;;;;0.74;82.40;99494.79;107421;280;95627;-54
2023/11/27 11:17:51;;;;;;;17.50;13.50;;;;;;;0.71;82.64;99498.55;107485;280;98766;-53
2023/11/27 11:20:55;;;;;;;14.90;12.30;;;;;;;0.75;82.75;99497.16;107368;280;119070;-55
2023/11/27 11:23:44;;;;;;;16.40;12.60;;;;;;;0.81;83.00;99491.74;107238;280;154259;-56
2023/11/27 11:26:52;;;;;;;13.30;10.90;;;;;;;0.83;82.94;99490.11;107372;281;115812;-56
2023/11/27 11:29:36;;;;;;;17.10;11.70;;;;;;;0.76;83.08;99484.06;107329;280;154289;-53
2023/11/27 11:32:17;;;;;;;18.90;13.20;;;;;;;0.78;83.17;99486.06;107400;281;96486;-53
2023/11/27 11:35:04;;;;;;;20.80;14.20;;;;;;;0.80;83.34;99481.96;107300;280;153506;-56
2023/11/27 11:37:49;;;;;;;21.10;13.80;;;;;;;0.78;83.24;99483.14;107392;280;105117;-55
2023/11/27 11:40:40;;;;;;;19.00;14.40;;;;;;;0.74;83.35;99480.78;107226;280;154425;-55
2023/11/27 11:43:21;;;;;;;17.30;13.00;;;;;;;0.66;83.52;99479.59;107345;281;94035;-54
2023/11/27 11:46:16;;;;;;;18.00;13.30;;;;;;;0.69;83.39;99480.38;107248;280;154233;-53
2023/11/27 11:49:02;;;;;;;18.40;13.20;;;;;;;0.66;83.37;99485.08;107393;280;120222;-54
2023/11/27 11:52:07;;;;;;;18.20;13.60;;;;;;;0.69;83.45;99481.45;107322;280;154529;-54
2023/11/27 11:54:41;;;;;;;14.90;12.20;;;;;;;0.69;83.47;99481.48;107344;281;114204;-57
2023/11/27 11:57:26;;;;;;;18.40;12.40;;;;;;;0.66;83.49;99478.23;107278;281;154075;-56
2023/11/27 12:00:04;;;;;;;16.20;13.00;;;;;;;0.73;83.34;99471.69;107395;280;95509;-53
2023/11/27 12:02:50;;;;;;;15.90;12.30;;;;;;;0.75;83.39;99470.92;107369;280;119479;-52
2023/11/27 12:05:27;;;;;;;15.90;13.10;;;;;;;0.74;83.34;99471.17;107244;280;153824;-51
2023/11/27 12:08:10;;;;;;;15.30;12.70;;;;;;;0.74;83.23;99466.25;107346;281;115509;-51
2023/11/27 12:10:48;;;;;;;17.10;12.80;;;;;;;0.75;83.23;99466.30;107256;281;154513;-58
2023/11/27 12:13:33;;;;;;;15.80;12.60;;;;;;;0.78;83.15;99467.11;107397;281;96223;-54
2023/11/27 12:16:12;;;;;;;14.70;11.40;;;;;;;0.78;83.05;99468.36;107221;281;153998;-57
2023/11/27 12:19:00;;;;;;;19.20;13.50;;;;;;;0.73;83.16;99467.54;107355;280;105747;-54
2023/11/27 12:21:41;;;;;;;16.60;12.10;;;;;;;0.73;83.32;99470.09;107258;278;155490;-53